createdAt,value
2023-03-25T00:01:47.778Z,16.70
2023-03-25T00:04:17.779Z,16.60
2023-03-25T00:06:47.602Z,16.50
2023-03-25T00:09:18.319Z,16.50
2023-03-25T00:11:47.747Z,16.50
2023-03-25T00:14:17.224Z,16.50
2023-03-25T00:16:48.629Z,16.50
2023-03-25T00:19:18.320Z,16.40
2023-03-25T00:21:50.463Z,16.40
2023-03-25T00:24:21.359Z,16.30
2023-03-25T00:26:50.807Z,16.30
2023-03-25T00:29:20.128Z,16.30
2023-03-25T00:31:49.492Z,16.30
2023-03-25T00:34:20.415Z,16.30
2023-03-25T00:36:49.807Z,16.30
2023-03-25T00:39:20.688Z,16.20
2023-03-25T00:41:49.963Z,16.20
2023-03-25T00:44:19.453Z,16.20
2023-03-25T00:46:48.883Z,16.20
2023-03-25T00:49:18.352Z,16.10
2023-03-25T00:51:53.274Z,16.20
2023-03-25T00:54:25.577Z,16.10
2023-03-25T00:56:55.128Z,16.10
2023-03-25T00:59:24.809Z,16.10
2023-03-25T01:01:56.307Z,16.10
2023-03-25T01:04:25.870Z,16.10
2023-03-25T01:06:55.409Z,16.00
2023-03-25T01:09:26.199Z,16.00
2023-03-25T01:11:55.703Z,16.00
2023-03-25T01:14:27.527Z,16.00
2023-03-25T01:16:57.163Z,16.00
2023-03-25T01:19:27.263Z,16.00
2023-03-25T01:21:56.955Z,16.00
2023-03-25T01:24:27.643Z,16.00
2023-03-25T01:26:56.641Z,16.00
2023-03-25T01:29:25.986Z,16.00
2023-03-25T01:31:56.173Z,16.00
2023-03-25T01:34:44.327Z,15.90
2023-03-25T01:37:18.252Z,15.90
2023-03-25T01:39:50.051Z,15.90
2023-03-25T01:42:20.245Z,16.00
2023-03-25T01:45:19.632Z,15.90
2023-03-25T01:47:53.144Z,15.90
2023-03-25T01:50:29.335Z,15.90
2023-03-25T01:53:00.652Z,15.90
2023-03-25T01:55:33.421Z,15.90
2023-03-25T01:58:07.648Z,15.90
2023-03-25T02:00:37.511Z,15.90
2023-03-25T02:03:09.435Z,15.90
2023-03-25T02:05:47.980Z,15.90
2023-03-25T02:08:27.341Z,15.90
2023-03-25T02:11:06.974Z,15.90
2023-03-25T02:13:41.256Z,15.80
2023-03-25T02:16:31.285Z,15.80
2023-03-25T02:19:28.150Z,15.70
2023-03-25T02:22:50.098Z,15.70
2023-03-25T02:25:57.454Z,15.60
2023-03-25T02:28:39.285Z,15.60
2023-03-25T02:31:44.715Z,15.50
2023-03-25T02:34:46.381Z,15.50
2023-03-25T02:38:06.550Z,15.40
2023-03-25T02:40:48.949Z,15.40
2023-03-25T02:43:24.864Z,15.30
2023-03-25T02:45:57.525Z,15.30
2023-03-25T02:48:35.939Z,15.30
2023-03-25T02:51:12.393Z,15.30
2023-03-25T02:53:48.196Z,15.20
2023-03-25T02:56:23.052Z,15.20
2023-03-25T02:58:55.853Z,15.10
2023-03-25T03:01:27.121Z,15.00
2023-03-25T03:03:58.582Z,15.10
2023-03-25T03:06:28.842Z,15.10
2023-03-25T03:09:16.446Z,15.00
2023-03-25T03:11:58.829Z,15.00
2023-03-25T03:14:48.924Z,15.00
2023-03-25T03:17:26.933Z,15.00
2023-03-25T03:20:00.301Z,14.90
2023-03-25T03:22:41.896Z,14.90
2023-03-25T03:25:25.302Z,14.90
2023-03-25T03:28:00.282Z,14.90
2023-03-25T03:30:34.625Z,14.90
2023-03-25T03:33:13.504Z,14.80
2023-03-25T03:35:50.613Z,14.80
2023-03-25T03:38:25.808Z,14.80
2023-03-25T03:41:02.203Z,14.70
2023-03-25T03:43:40.679Z,14.80
2023-03-25T03:46:17.044Z,14.70
2023-03-25T03:48:51.686Z,14.70
2023-03-25T03:51:26.162Z,14.70
2023-03-25T03:54:00.700Z,14.70
2023-03-25T03:56:37.400Z,14.70
2023-03-25T03:59:14.604Z,14.70
2023-03-25T04:01:48.196Z,14.70
2023-03-25T04:04:22.326Z,14.70
2023-03-25T04:06:59.137Z,14.70
2023-03-25T04:09:38.710Z,14.60
2023-03-25T04:12:18.422Z,14.70
2023-03-25T04:14:48.241Z,14.70
2023-03-25T04:17:19.582Z,14.70
2023-03-25T04:19:53.900Z,14.70
2023-03-25T04:22:24.794Z,14.70
2023-03-25T04:24:56.417Z,14.70
2023-03-25T04:27:29.910Z,14.70
2023-03-25T04:30:01.927Z,14.70
2023-03-25T04:32:31.545Z,14.70
2023-03-25T04:35:01.586Z,14.70
2023-03-25T04:37:33.952Z,14.70
2023-03-25T04:40:06.946Z,14.70
2023-03-25T04:42:37.867Z,14.70
2023-03-25T04:45:08.265Z,14.70
2023-03-25T04:47:45.182Z,14.60
2023-03-25T04:50:23.647Z,14.60
2023-03-25T04:53:05.933Z,14.60
2023-03-25T04:55:35.781Z,14.60
2023-03-25T04:58:07.588Z,14.50
2023-03-25T05:00:37.314Z,14.60
2023-03-25T05:03:07.253Z,14.60
2023-03-25T05:05:37.298Z,14.60
2023-03-25T05:08:10.096Z,14.60
2023-03-25T05:10:39.693Z,14.60
2023-03-25T05:13:11.635Z,14.60
2023-03-25T05:15:46.335Z,14.60
2023-03-25T05:18:36.472Z,14.60
2023-03-25T05:21:09.351Z,14.50
2023-03-25T05:23:39.077Z,14.50
2023-03-25T05:26:09.159Z,14.60
2023-03-25T05:28:52.242Z,14.60
2023-03-25T05:31:23.728Z,14.60
2023-03-25T05:33:55.027Z,14.60
2023-03-25T05:36:26.005Z,14.50
2023-03-25T05:39:01.744Z,14.50
2023-03-25T05:41:33.693Z,14.50
2023-03-25T05:44:07.840Z,14.50
2023-03-25T05:46:37.846Z,14.50
2023-03-25T05:49:07.509Z,14.50
2023-03-25T05:51:42.446Z,14.50
2023-03-25T05:54:19.579Z,14.50
2023-03-25T05:56:53.254Z,14.50
2023-03-25T05:59:33.044Z,14.50
2023-03-25T06:02:19.383Z,14.60
2023-03-25T06:04:52.992Z,14.60
2023-03-25T06:07:26.150Z,14.50
2023-03-25T06:09:55.962Z,14.60
2023-03-25T06:12:27.699Z,14.60
2023-03-25T06:14:58.882Z,14.60
2023-03-25T06:17:28.507Z,14.60
2023-03-25T06:20:00.825Z,14.60
2023-03-25T06:22:30.948Z,14.60
2023-03-25T06:25:03.697Z,14.60
2023-03-25T06:27:40.663Z,14.70
2023-03-25T06:30:15.421Z,14.70
2023-03-25T06:32:45.289Z,14.70
2023-03-25T06:35:18.428Z,14.70
2023-03-25T06:37:49.049Z,14.70
2023-03-25T06:40:35.254Z,14.70
2023-03-25T06:43:09.460Z,14.60
2023-03-25T06:45:40.711Z,14.70
2023-03-25T06:48:47.592Z,14.70
2023-03-25T06:51:19.513Z,14.80
2023-03-25T06:53:51.023Z,14.80
2023-03-25T06:56:30.801Z,14.80
2023-03-25T06:59:01.098Z,14.80
2023-03-25T07:01:41.256Z,14.80
2023-03-25T07:04:14.116Z,14.80
2023-03-25T07:06:44.437Z,14.80
2023-03-25T07:09:17.469Z,14.80
2023-03-25T07:11:47.361Z,14.80
2023-03-25T07:14:20.419Z,14.90
2023-03-25T07:17:47.811Z,14.80
2023-03-25T07:20:30.831Z,14.90
2023-03-25T07:23:06.008Z,14.90
2023-03-25T07:25:41.254Z,14.90
2023-03-25T07:28:22.708Z,15.00
2023-03-25T07:30:55.913Z,15.00
2023-03-25T07:33:38.100Z,15.00
2023-03-25T07:36:13.393Z,15.10
2023-03-25T07:38:48.684Z,15.20
2023-03-25T07:41:22.849Z,15.20
2023-03-25T07:44:08.444Z,15.30
2023-03-25T07:46:40.320Z,15.30
2023-03-25T07:49:12.115Z,15.40
2023-03-25T07:51:42.657Z,15.50
2023-03-25T07:54:18.659Z,15.50
2023-03-25T07:56:55.874Z,15.60
2023-03-25T07:59:33.290Z,15.70
2023-03-25T08:02:16.185Z,15.70
2023-03-25T08:05:09.245Z,15.80
2023-03-25T08:07:47.705Z,15.80
2023-03-25T08:11:24.190Z,15.90
2023-03-25T08:14:02.415Z,16.00
2023-03-25T08:17:18.275Z,16.00
2023-03-25T08:20:10.426Z,16.00
2023-03-25T08:35:40.928Z,16.40
2023-03-25T08:39:25.301Z,16.40
2023-03-25T08:53:51.121Z,16.50
2023-03-25T08:57:11.765Z,16.50
2023-03-25T09:03:02.478Z,16.60
2023-03-25T09:06:01.931Z,16.60
2023-03-25T09:08:33.071Z,16.60
2023-03-25T09:11:36.985Z,16.60
2023-03-25T09:14:16.053Z,16.60
2023-03-25T09:16:52.309Z,16.70
2023-03-25T09:19:22.936Z,16.70
2023-03-25T09:22:04.418Z,16.80
2023-03-25T09:25:06.949Z,16.80
2023-03-25T09:27:51.674Z,16.80
2023-03-25T09:30:30.790Z,16.80
2023-03-25T09:33:23.090Z,16.90
2023-03-25T09:35:55.984Z,16.80
2023-03-25T09:38:26.021Z,16.90
2023-03-25T09:41:15.019Z,17.00
2023-03-25T09:44:46.868Z,16.90
2023-03-25T09:51:54.418Z,16.90
2023-03-25T09:54:57.484Z,16.90
2023-03-25T09:57:33.569Z,16.90
2023-03-25T10:00:22.636Z,16.80
2023-03-25T10:03:09.455Z,16.70
2023-03-25T10:06:45.722Z,16.70
2023-03-25T10:10:03.043Z,16.70
2023-03-25T10:12:45.368Z,16.60
2023-03-25T10:15:48.335Z,16.60
2023-03-25T10:18:54.617Z,16.60
2023-03-25T10:21:45.792Z,16.50
2023-03-25T10:24:26.727Z,16.50
2023-03-25T10:27:02.895Z,16.50
2023-03-25T10:29:42.027Z,16.50
2023-03-25T10:32:19.660Z,16.50
2023-03-25T10:35:14.762Z,16.60
2023-03-25T10:38:42.302Z,16.60
2023-03-25T10:41:32.342Z,16.70
2023-03-25T10:44:38.203Z,16.70
2023-03-25T10:47:19.586Z,16.80
2023-03-25T10:49:56.050Z,16.90
2023-03-25T10:52:57.631Z,17.00
2023-03-25T10:55:38.253Z,17.10
2023-03-25T10:58:12.943Z,17.20
2023-03-25T11:00:45.517Z,17.30
2023-03-25T11:03:29.825Z,17.40
2023-03-25T11:10:07.194Z,17.50
2023-03-25T11:15:19.854Z,17.70
2023-03-25T11:17:58.905Z,17.70
2023-03-25T11:20:42.212Z,17.70
2023-03-25T11:23:23.750Z,17.70
2023-03-25T11:25:56.962Z,17.70
2023-03-25T11:28:40.172Z,17.60
2023-03-25T11:31:14.756Z,17.60
2023-03-25T11:33:47.388Z,17.50
2023-03-25T11:36:30.141Z,17.50
2023-03-25T11:39:04.444Z,17.40
2023-03-25T11:41:37.165Z,17.40
2023-03-25T11:44:08.024Z,17.30
2023-03-25T11:46:44.599Z,17.30
2023-03-25T11:49:21.950Z,17.20
2023-03-25T11:51:59.323Z,17.20
2023-03-25T11:54:30.019Z,17.10
2023-03-25T11:57:05.307Z,17.10
2023-03-25T11:59:41.395Z,17.00
2023-03-25T12:02:24.916Z,17.00
2023-03-25T12:05:02.978Z,17.00
2023-03-25T12:07:44.985Z,17.00
2023-03-25T12:10:22.999Z,16.80
2023-03-25T12:13:00.930Z,16.90
2023-03-25T12:15:41.654Z,16.90
2023-03-25T12:18:36.555Z,16.90
2023-03-25T12:21:14.942Z,16.90
2023-03-25T12:23:57.748Z,16.90
2023-03-25T12:26:37.559Z,16.90
2023-03-25T12:29:21.675Z,16.90
2023-03-25T12:32:08.867Z,16.90
2023-03-25T12:34:54.890Z,16.90
2023-03-25T12:37:34.557Z,16.90
2023-03-25T12:40:33.889Z,16.90
2023-03-25T12:43:09.893Z,16.90
2023-03-25T12:46:11.223Z,16.90
2023-03-25T12:49:00.632Z,16.90
2023-03-25T12:51:42.418Z,16.90
2023-03-25T12:54:31.043Z,16.90
2023-03-25T12:57:14.927Z,16.90
2023-03-25T13:00:01.408Z,17.00
2023-03-25T13:03:01.160Z,17.00
2023-03-25T13:05:40.454Z,17.00
2023-03-25T13:08:16.340Z,17.00
2023-03-25T13:10:50.782Z,17.00
2023-03-25T13:13:25.861Z,17.00
2023-03-25T13:16:04.871Z,16.90
2023-03-25T13:18:41.769Z,17.00
2023-03-25T13:21:17.573Z,17.00
2023-03-25T13:23:53.170Z,17.00
2023-03-25T13:26:29.587Z,16.90
2023-03-25T13:29:05.585Z,17.00
2023-03-25T13:31:38.225Z,17.00
2023-03-25T13:34:22.891Z,17.00
2023-03-25T13:37:03.869Z,17.00
2023-03-25T13:40:13.382Z,17.00
2023-03-25T13:42:50.531Z,17.00
2023-03-25T13:45:23.094Z,17.00
2023-03-25T13:48:01.911Z,17.00
2023-03-25T13:50:33.681Z,17.00
2023-03-25T13:53:08.664Z,17.00
2023-03-25T13:55:43.218Z,17.00
2023-03-25T13:58:27.088Z,16.90
2023-03-25T14:01:34.738Z,16.90
2023-03-25T14:05:03.125Z,16.90
2023-03-25T14:07:50.903Z,16.90
2023-03-25T14:10:40.631Z,16.90
2023-03-25T14:13:14.987Z,16.90
2023-03-25T14:15:54.892Z,16.90
2023-03-25T14:18:26.190Z,16.90
2023-03-25T14:20:57.394Z,16.80
2023-03-25T14:23:33.113Z,16.80
2023-03-25T14:26:05.161Z,16.80
2023-03-25T14:28:38.952Z,16.80
2023-03-25T14:31:27.243Z,16.80
2023-03-25T14:34:28.668Z,16.80
2023-03-25T14:37:31.009Z,16.80
2023-03-25T14:40:08.399Z,16.80
2023-03-25T14:42:59.827Z,16.80
2023-03-25T14:45:52.603Z,16.80
2023-03-25T14:48:37.433Z,16.80
2023-03-25T14:51:41.727Z,16.80
2023-03-25T14:54:27.264Z,16.70
2023-03-25T14:57:04.069Z,16.70
2023-03-25T14:59:38.069Z,16.80
2023-03-25T15:02:18.169Z,16.80
2023-03-25T15:04:54.012Z,16.80
2023-03-25T15:07:45.678Z,16.80
2023-03-25T15:10:26.625Z,16.80
2023-03-25T15:13:04.673Z,16.90
2023-03-25T15:15:55.084Z,16.90
2023-03-25T15:19:06.587Z,16.90
2023-03-25T15:22:21.972Z,16.90
2023-03-25T15:25:02.920Z,16.90
2023-03-25T15:28:00.835Z,16.90
2023-03-25T15:31:04.513Z,16.90
2023-03-25T15:33:59.287Z,16.90
2023-03-25T15:36:47.737Z,16.90
2023-03-25T15:39:55.588Z,17.00
2023-03-25T15:42:56.147Z,16.90
2023-03-25T15:46:02.292Z,17.00
2023-03-25T15:49:03.180Z,17.00
2023-03-25T15:51:52.860Z,17.00
2023-03-25T15:54:39.899Z,17.00
2023-03-25T15:57:20.678Z,17.00
2023-03-25T16:00:00.745Z,16.90
2023-03-25T16:02:35.707Z,16.90
2023-03-25T16:05:06.869Z,17.00
2023-03-25T16:07:37.177Z,17.00
2023-03-25T16:10:16.505Z,17.10
2023-03-25T16:12:48.646Z,17.10
2023-03-25T16:15:26.601Z,17.20
2023-03-25T16:17:58.190Z,17.20
2023-03-25T16:20:31.993Z,17.30
2023-03-25T16:23:03.375Z,17.30
2023-03-25T16:25:37.886Z,17.30
2023-03-25T16:28:09.769Z,17.30
2023-03-25T16:30:43.175Z,17.30
2023-03-25T16:33:21.774Z,17.30
2023-03-25T16:35:56.675Z,17.30
2023-03-25T16:38:26.635Z,17.40
2023-03-25T16:41:03.825Z,17.30
2023-03-25T16:43:33.613Z,17.30
2023-03-25T16:46:07.071Z,17.30
2023-03-25T16:48:39.853Z,17.30
2023-03-25T16:51:15.929Z,17.30
2023-03-25T16:53:46.207Z,17.30
2023-03-25T16:56:29.700Z,17.30
2023-03-25T16:59:04.037Z,17.30
2023-03-25T17:01:42.567Z,17.30
2023-03-25T17:04:19.187Z,17.30
2023-03-25T17:06:53.078Z,17.30
2023-03-25T17:09:25.193Z,17.30
2023-03-25T17:11:58.071Z,17.30
2023-03-25T17:14:33.639Z,17.30
2023-03-25T17:17:12.596Z,17.30
2023-03-25T17:19:47.241Z,17.40
2023-03-25T17:22:25.609Z,17.30
2023-03-25T17:24:58.446Z,17.30
2023-03-25T17:27:35.043Z,17.30
2023-03-25T17:30:19.688Z,17.30
2023-03-25T17:32:51.234Z,17.30
2023-03-25T17:35:25.430Z,17.30
2023-03-25T17:38:06.686Z,17.30
2023-03-25T17:40:36.593Z,17.30
2023-03-25T17:43:06.574Z,17.30
2023-03-25T17:45:36.255Z,17.30
2023-03-25T17:48:11.156Z,17.30
2023-03-25T17:50:51.177Z,17.30
2023-03-25T17:53:21.382Z,17.30
2023-03-25T17:55:51.886Z,17.30
2023-03-25T17:58:23.574Z,17.20
2023-03-25T18:00:53.770Z,17.20
2023-03-25T18:03:28.361Z,17.20
2023-03-25T18:05:58.569Z,17.10
2023-03-25T18:08:29.502Z,17.10
2023-03-25T18:11:00.026Z,17.00
2023-03-25T18:13:29.587Z,17.00
2023-03-25T18:15:59.057Z,16.90
2023-03-25T18:18:30.047Z,16.80
2023-03-25T18:21:00.358Z,16.80
2023-03-25T18:23:30.566Z,16.80
2023-03-25T18:26:00.319Z,16.80
2023-03-25T18:28:31.593Z,16.70
2023-03-25T18:31:02.207Z,16.70
2023-03-25T18:33:35.934Z,16.60
2023-03-25T18:36:06.643Z,16.60
2023-03-25T18:38:36.411Z,16.60
2023-03-25T18:41:06.949Z,16.60
2023-03-25T18:43:36.648Z,16.60
2023-03-25T18:46:07.808Z,16.60
2023-03-25T18:48:39.392Z,16.60
2023-03-25T18:51:12.000Z,16.60
2023-03-25T18:53:42.084Z,16.50
2023-03-25T18:56:11.750Z,16.50
2023-03-25T18:58:41.225Z,16.50
2023-03-25T19:01:15.770Z,16.50
2023-03-25T19:03:46.674Z,16.50
2023-03-25T19:06:16.718Z,16.50
2023-03-25T19:08:47.603Z,16.50
2023-03-25T19:11:21.489Z,16.50
2023-03-25T19:13:51.803Z,16.50
2023-03-25T19:16:23.937Z,16.50
2023-03-25T19:18:54.670Z,16.50
2023-03-25T19:21:23.669Z,16.50
2023-03-25T19:23:52.916Z,16.40
2023-03-25T19:26:22.053Z,16.40
2023-03-25T19:28:53.598Z,16.40
2023-03-25T19:31:22.918Z,16.40
2023-03-25T19:33:54.016Z,16.30
2023-03-25T19:36:23.106Z,16.30
2023-03-25T19:38:53.191Z,16.30
2023-03-25T19:41:24.495Z,16.30
2023-03-25T19:43:53.632Z,16.30
2023-03-25T19:46:23.756Z,16.30
2023-03-25T19:48:54.264Z,16.20
2023-03-25T19:51:23.250Z,16.20
2023-03-25T19:53:52.250Z,16.20
2023-03-25T19:56:21.573Z,16.20
2023-03-25T19:58:50.581Z,16.20
2023-03-25T20:01:21.793Z,16.20
2023-03-25T20:03:51.301Z,16.20
2023-03-25T20:06:21.895Z,16.20
2023-03-25T20:08:50.900Z,16.20
2023-03-25T20:11:19.945Z,16.10
2023-03-25T20:13:49.288Z,16.10
2023-03-25T20:16:18.320Z,16.10
2023-03-25T20:18:47.711Z,16.10
2023-03-25T20:21:20.003Z,16.10
2023-03-25T20:23:50.356Z,16.10
2023-03-25T20:26:19.372Z,16.10
2023-03-25T20:28:49.426Z,16.10
2023-03-25T20:31:21.600Z,16.10
2023-03-25T20:33:51.772Z,16.10
2023-03-25T20:36:21.617Z,16.00
2023-03-25T20:38:57.835Z,16.00
2023-03-25T20:41:27.491Z,16.00
2023-03-25T20:43:56.505Z,16.00
2023-03-25T20:46:28.471Z,16.00
2023-03-25T20:48:57.909Z,16.00
2023-03-25T20:51:26.996Z,16.00
2023-03-25T20:53:57.936Z,16.00
2023-03-25T20:56:27.408Z,16.00
2023-03-25T20:58:59.031Z,16.00
2023-03-25T21:01:30.657Z,16.00
2023-03-25T21:03:59.752Z,16.00
2023-03-25T21:06:29.644Z,16.00
2023-03-25T21:09:06.930Z,16.00
2023-03-25T21:11:36.812Z,15.90
2023-03-25T21:14:06.712Z,15.90
2023-03-25T21:16:35.929Z,15.90
2023-03-25T21:19:07.886Z,15.90
2023-03-25T21:21:39.066Z,15.90
2023-03-25T21:24:09.937Z,15.90
2023-03-25T21:26:39.442Z,15.90
2023-03-25T21:29:08.778Z,15.90
2023-03-25T21:31:38.100Z,15.90
2023-03-25T21:34:07.511Z,15.90
2023-03-25T21:36:36.789Z,15.90
2023-03-25T21:39:08.211Z,15.90
2023-03-25T21:41:38.889Z,15.90
2023-03-25T21:44:09.091Z,15.90
2023-03-25T21:46:38.263Z,15.80
2023-03-25T21:49:11.739Z,15.80
2023-03-25T21:51:43.034Z,15.80
2023-03-25T21:54:14.502Z,15.80
2023-03-25T21:56:45.419Z,15.80
2023-03-25T21:59:14.862Z,15.80
2023-03-25T22:01:44.229Z,15.80
2023-03-25T22:04:15.428Z,15.80
2023-03-25T22:06:44.772Z,15.80
2023-03-25T22:09:15.146Z,15.80
2023-03-25T22:11:46.221Z,15.80
2023-03-25T22:14:15.714Z,15.80
2023-03-25T22:16:45.113Z,15.80
2023-03-25T22:19:14.227Z,15.80
2023-03-25T22:21:46.062Z,15.80
2023-03-25T22:24:15.454Z,15.80
2023-03-25T22:26:46.012Z,15.80
2023-03-25T22:29:15.696Z,15.80
2023-03-25T22:31:45.398Z,15.80
2023-03-25T22:34:16.097Z,15.80
2023-03-25T22:36:50.515Z,15.80
2023-03-25T22:39:23.163Z,15.80
2023-03-25T22:41:53.934Z,15.80
2023-03-25T22:44:24.136Z,15.80
2023-03-25T22:46:56.735Z,15.80
2023-03-25T22:49:28.394Z,15.80
2023-03-25T22:51:57.435Z,15.80
2023-03-25T22:54:26.419Z,15.80
2023-03-25T22:56:59.253Z,15.90
2023-03-25T22:59:28.342Z,15.90
2023-03-25T23:01:57.349Z,15.90
2023-03-25T23:04:28.702Z,15.80
2023-03-25T23:07:07.346Z,15.80
2023-03-25T23:09:45.171Z,15.80
2023-03-25T23:12:18.008Z,15.80
2023-03-25T23:14:51.757Z,15.80
2023-03-25T23:17:21.147Z,15.80
2023-03-25T23:19:50.417Z,15.80
2023-03-25T23:22:21.195Z,15.80
2023-03-25T23:24:50.221Z,15.80
2023-03-25T23:27:20.738Z,15.80
2023-03-25T23:29:52.724Z,15.70
2023-03-25T23:32:24.578Z,15.70
2023-03-25T23:34:54.769Z,15.70
2023-03-25T23:37:26.159Z,15.80
2023-03-25T23:39:55.104Z,15.70
2023-03-25T23:42:34.908Z,15.70
2023-03-25T23:45:05.978Z,15.70
2023-03-25T23:47:35.130Z,15.70
2023-03-25T23:50:04.245Z,15.70
2023-03-25T23:52:36.010Z,15.70
2023-03-25T23:55:07.401Z,15.70
2023-03-25T23:57:38.280Z,15.70
